createdAt,value
2018-12-13T00:00:23.531Z,35.12
2018-12-13T00:02:52.387Z,35.18
2018-12-13T00:05:21.254Z,35.86
2018-12-13T00:07:50.250Z,35.50
2018-12-13T00:10:19.107Z,35.70
2018-12-13T00:12:47.916Z,36.46
2018-12-13T00:15:19.490Z,36.42
2018-12-13T00:17:48.266Z,36.55
2018-12-13T00:20:17.077Z,36.15
2018-12-13T00:22:45.999Z,36.01
2018-12-13T00:25:14.974Z,35.95
2018-12-13T00:27:43.864Z,35.95
2018-12-13T00:30:12.665Z,35.69
2018-12-13T00:32:41.624Z,35.63
2018-12-13T00:35:10.454Z,35.78
2018-12-13T00:37:39.398Z,35.72
2018-12-13T00:40:08.325Z,35.75
2018-12-13T00:42:37.165Z,35.89
2018-12-13T00:45:06.638Z,36.36
2018-12-13T00:47:35.460Z,36.61
2018-12-13T00:50:04.245Z,36.78
2018-12-13T00:52:33.249Z,36.51
2018-12-13T00:55:02.089Z,36.35
2018-12-13T00:57:30.936Z,36.41
2018-12-13T00:59:59.908Z,36.33
2018-12-13T01:02:28.739Z,36.25
2018-12-13T01:04:57.511Z,36.35
2018-12-13T01:07:26.370Z,36.40
2018-12-13T01:09:55.133Z,36.13
2018-12-13T01:12:24.441Z,36.00
2018-12-13T01:14:53.313Z,35.94
2018-12-13T01:17:22.149Z,35.88
2018-12-13T01:19:50.973Z,36.10
2018-12-13T01:22:20.011Z,36.40
2018-12-13T01:24:48.897Z,36.58
2018-12-13T01:27:17.760Z,36.54
2018-12-13T01:29:46.776Z,36.90
2018-12-13T01:32:15.594Z,37.21
2018-12-13T01:34:44.403Z,37.26
2018-12-13T01:37:13.397Z,37.07
2018-12-13T01:39:42.253Z,36.63
2018-12-13T01:42:11.159Z,36.72
2018-12-13T01:44:40.248Z,36.48
2018-12-13T01:47:09.283Z,36.69
2018-12-13T01:49:38.160Z,36.85
2018-12-13T01:52:07.153Z,36.82
2018-12-13T01:54:36.127Z,37.21
2018-12-13T01:57:04.980Z,37.99
2018-12-13T01:59:33.951Z,37.44
2018-12-13T02:02:02.769Z,37.06
2018-12-13T02:04:31.749Z,36.94
2018-12-13T02:07:00.621Z,36.76
2018-12-13T02:09:29.435Z,36.55
2018-12-13T02:11:58.451Z,36.67
2018-12-13T02:14:27.352Z,36.32
2018-12-13T02:16:56.286Z,36.38
2018-12-13T02:19:25.151Z,36.21
2018-12-13T02:21:53.957Z,36.31
2018-12-13T02:24:22.745Z,36.66
2018-12-13T02:26:51.605Z,36.69
2018-12-13T02:29:20.454Z,36.80
2018-12-13T02:31:49.432Z,37.27
2018-12-13T02:34:18.394Z,37.40
2018-12-13T02:36:47.248Z,37.14
2018-12-13T02:39:16.177Z,37.12
2018-12-13T02:41:45.265Z,36.90
2018-12-13T02:44:14.109Z,36.98
2018-12-13T02:46:42.926Z,36.76
2018-12-13T02:49:11.753Z,36.69
2018-12-13T02:51:40.571Z,36.66
2018-12-13T02:54:09.444Z,36.69
2018-12-13T02:56:38.301Z,36.59
2018-12-13T02:59:07.357Z,36.52
2018-12-13T03:01:36.238Z,36.45
2018-12-13T03:04:05.089Z,36.90
2018-12-13T03:06:34.044Z,36.91
2018-12-13T03:09:03.065Z,36.86
2018-12-13T03:11:31.937Z,36.91
2018-12-13T03:14:00.769Z,37.29
2018-12-13T03:16:29.723Z,37.14
2018-12-13T03:18:58.577Z,37.18
2018-12-13T03:21:27.411Z,36.91
2018-12-13T03:23:56.461Z,36.87
2018-12-13T03:26:25.287Z,36.83
2018-12-13T03:28:54.151Z,36.95
2018-12-13T03:31:23.008Z,36.86
2018-12-13T03:33:51.958Z,36.88
2018-12-13T03:36:20.806Z,36.55
2018-12-13T03:38:49.920Z,36.90
2018-12-13T03:41:18.790Z,36.88
2018-12-13T03:43:47.821Z,37.11
2018-12-13T03:46:16.628Z,37.30
2018-12-13T03:48:45.450Z,37.29
2018-12-13T03:51:14.471Z,37.27
2018-12-13T03:53:43.226Z,37.19
2018-12-13T03:56:12.076Z,37.03
2018-12-13T03:58:40.908Z,36.96
2018-12-13T04:01:09.997Z,36.88
2018-12-13T04:03:38.956Z,36.78
2018-12-13T04:06:07.860Z,36.88
2018-12-13T04:08:36.812Z,36.77
2018-12-13T04:11:05.669Z,36.75
2018-12-13T04:13:34.660Z,36.72
2018-12-13T04:16:03.479Z,36.64
2018-12-13T04:18:32.331Z,36.55
2018-12-13T04:21:01.306Z,36.84
2018-12-13T04:23:30.129Z,37.35
2018-12-13T04:25:58.957Z,37.67
2018-12-13T04:28:28.173Z,38.23
2018-12-13T04:30:57.140Z,37.84
2018-12-13T04:33:25.913Z,37.49
2018-12-13T04:35:54.732Z,37.32
2018-12-13T04:38:23.692Z,37.07
2018-12-13T04:40:52.650Z,36.86
2018-12-13T04:43:21.703Z,36.93
2018-12-13T04:45:50.573Z,36.83
2018-12-13T04:48:19.432Z,36.83
2018-12-13T04:50:48.201Z,36.62
2018-12-13T04:53:17.108Z,36.73
2018-12-13T04:55:45.943Z,36.69
2018-12-13T04:58:14.733Z,36.97
2018-12-13T05:00:43.581Z,37.06
2018-12-13T05:03:12.392Z,37.28
2018-12-13T05:05:41.368Z,37.74
2018-12-13T05:08:10.752Z,37.81
2018-12-13T05:10:57.457Z,37.68
2018-12-13T05:13:26.292Z,37.36
2018-12-13T05:15:55.164Z,37.42
2018-12-13T05:18:23.991Z,37.37
2018-12-13T05:20:52.849Z,37.17
2018-12-13T05:23:21.841Z,36.96
2018-12-13T05:25:50.585Z,36.75
2018-12-13T05:28:19.485Z,36.14
2018-12-13T05:30:48.314Z,35.75
2018-12-13T05:33:17.187Z,35.87
2018-12-13T05:35:45.994Z,35.58
2018-12-13T05:38:14.817Z,36.44
2018-12-13T05:40:43.857Z,36.85
2018-12-13T05:43:12.671Z,36.59
2018-12-13T05:45:41.500Z,36.43
2018-12-13T05:48:10.421Z,36.63
2018-12-13T05:50:39.190Z,36.56
2018-12-13T05:53:08.011Z,36.48
2018-12-13T06:04:22.006Z,35.01
2018-12-13T06:06:50.788Z,34.89
2018-12-13T06:09:19.638Z,35.26
2018-12-13T06:11:48.541Z,35.16
2018-12-13T06:14:17.344Z,35.63
2018-12-13T06:16:46.294Z,36.01
2018-12-13T06:19:15.084Z,37.59
2018-12-13T06:21:44.002Z,37.80
2018-12-13T06:24:13.046Z,38.35
2018-12-13T06:26:41.909Z,39.25
2018-12-13T06:29:10.722Z,39.01
2018-12-13T06:31:39.596Z,38.75
2018-12-13T06:34:08.415Z,38.60
2018-12-13T06:36:37.282Z,38.82
2018-12-13T06:39:08.074Z,38.83
2018-12-13T06:41:37.014Z,38.75
2018-12-13T06:44:05.882Z,38.80
2018-12-13T06:46:34.709Z,38.52
2018-12-13T06:49:03.520Z,38.65
2018-12-13T06:51:32.500Z,39.33
2018-12-13T06:54:01.350Z,39.29
2018-12-13T06:56:30.305Z,39.57
2018-12-13T06:58:59.220Z,39.78
2018-12-13T07:01:28.119Z,39.72
2018-12-13T07:03:57.099Z,39.97
2018-12-13T07:06:25.928Z,39.73
2018-12-13T07:08:54.789Z,39.31
2018-12-13T07:11:23.734Z,38.85
2018-12-13T07:13:52.508Z,38.34
2018-12-13T07:16:21.465Z,38.09
2018-12-13T07:18:50.438Z,38.25
2018-12-13T07:21:19.298Z,37.75
2018-12-13T07:23:48.145Z,37.84
2018-12-13T07:26:16.936Z,38.12
2018-12-13T07:28:45.890Z,38.21
2018-12-13T07:31:14.701Z,38.35
2018-12-13T07:33:43.698Z,38.45
2018-12-13T07:36:12.560Z,38.74
2018-12-13T07:38:41.527Z,38.91
2018-12-13T07:41:10.327Z,38.87
2018-12-13T07:43:39.200Z,38.67
2018-12-13T07:46:08.158Z,37.84
2018-12-13T07:48:37.058Z,38.01
2018-12-13T07:51:06.000Z,37.59
2018-12-13T07:53:34.785Z,38.01
2018-12-13T07:56:03.641Z,37.77
2018-12-13T07:58:32.677Z,38.02
2018-12-13T08:01:01.462Z,38.54
2018-12-13T08:03:30.297Z,38.72
2018-12-13T08:05:59.324Z,39.08
2018-12-13T08:08:28.167Z,39.06
2018-12-13T08:10:56.973Z,39.18
2018-12-13T08:13:25.924Z,39.18
2018-12-13T08:15:54.749Z,38.99
2018-12-13T08:18:23.689Z,38.60
2018-12-13T08:20:52.488Z,38.16
2018-12-13T08:23:21.349Z,37.89
2018-12-13T08:25:50.360Z,37.84
2018-12-13T08:28:19.158Z,37.41
2018-12-13T08:30:48.017Z,37.40
2018-12-13T08:33:16.867Z,38.21
2018-12-13T08:35:45.838Z,38.38
2018-12-13T08:38:14.859Z,38.91
2018-12-13T08:40:43.664Z,39.19
2018-12-13T08:43:12.524Z,39.22
2018-12-13T08:45:41.536Z,38.95
2018-12-13T08:48:10.401Z,38.96
2018-12-13T08:50:39.206Z,38.10
2018-12-13T08:53:08.005Z,37.22
2018-12-13T08:55:36.816Z,37.26
2018-12-13T08:58:05.791Z,37.11
2018-12-13T09:00:34.768Z,37.17
2018-12-13T09:03:03.629Z,37.75
2018-12-13T09:05:32.546Z,38.32
2018-12-13T09:08:01.496Z,38.53
2018-12-13T09:10:30.348Z,38.34
2018-12-13T09:12:59.316Z,38.74
2018-12-13T09:15:28.272Z,38.72
2018-12-13T09:17:57.070Z,38.10
2018-12-13T09:20:25.897Z,37.99
2018-12-13T09:22:54.769Z,37.28
2018-12-13T09:25:23.771Z,37.03
2018-12-13T09:27:52.734Z,36.18
2018-12-13T09:30:21.692Z,36.73
2018-12-13T09:32:50.549Z,37.31
2018-12-13T09:35:19.474Z,38.04
2018-12-13T09:37:48.312Z,38.29
2018-12-13T09:40:17.363Z,38.36
2018-12-13T09:42:46.226Z,38.45
2018-12-13T09:45:15.010Z,38.71
2018-12-13T09:47:43.865Z,38.12
2018-12-13T09:50:12.816Z,38.06
2018-12-13T09:52:41.610Z,37.52
2018-12-13T09:55:10.584Z,37.32
2018-12-13T09:57:39.389Z,37.18
2018-12-13T10:00:09.828Z,37.66
2018-12-13T10:02:38.795Z,37.30
2018-12-13T10:05:07.700Z,37.71
2018-12-13T10:07:36.661Z,37.87
2018-12-13T10:10:05.620Z,38.50
2018-12-13T10:12:34.612Z,38.76
2018-12-13T10:15:03.486Z,38.72
2018-12-13T10:17:32.316Z,38.39
2018-12-13T10:20:01.423Z,37.42
2018-12-13T10:22:30.480Z,37.35
2018-12-13T10:24:59.283Z,36.83
2018-12-13T10:27:28.158Z,36.88
2018-12-13T10:29:56.993Z,37.76
2018-12-13T10:32:26.034Z,37.91
2018-12-13T10:34:54.988Z,38.14
2018-12-13T10:37:23.972Z,38.39
2018-12-13T10:39:52.965Z,38.51
2018-12-13T10:42:21.932Z,38.63
2018-12-13T10:44:50.785Z,38.36
2018-12-13T10:47:19.822Z,37.95
2018-12-13T10:49:48.665Z,37.22
2018-12-13T10:52:17.528Z,37.07
2018-12-13T10:54:46.402Z,36.73
2018-12-13T10:57:15.249Z,37.29
2018-12-13T10:59:44.287Z,37.67
2018-12-13T11:02:18.343Z,38.00
2018-12-13T11:04:47.478Z,38.20
2018-12-13T11:07:16.289Z,38.50
2018-12-13T11:09:45.158Z,38.62
2018-12-13T11:12:14.172Z,38.64
2018-12-13T11:14:42.985Z,38.17
2018-12-13T11:17:11.839Z,37.30
2018-12-13T11:19:40.682Z,37.03
2018-12-13T11:22:09.680Z,36.59
2018-12-13T11:24:38.598Z,36.25
2018-12-13T11:29:28.431Z,37.17
2018-12-13T11:31:57.380Z,37.88
2018-12-13T11:34:26.333Z,37.28
2018-12-13T11:36:55.126Z,37.43
2018-12-13T11:39:24.170Z,37.81
2018-12-13T11:41:53.019Z,37.36
2018-12-13T11:44:21.936Z,36.84
2018-12-13T11:46:51.073Z,36.38
2018-12-13T11:49:20.035Z,36.00
2018-12-13T11:51:48.997Z,36.14
2018-12-13T11:54:42.270Z,36.86
2018-12-13T11:57:11.274Z,37.39
2018-12-13T11:59:40.127Z,37.15
2018-12-13T12:02:08.962Z,37.53
2018-12-13T12:04:37.992Z,38.43
2018-12-13T12:07:07.150Z,38.71
2018-12-13T12:09:35.997Z,38.32
2018-12-13T12:12:04.882Z,37.84
2018-12-13T12:14:33.736Z,37.12
2018-12-13T12:17:02.577Z,36.82
2018-12-13T12:19:31.462Z,37.41
2018-12-13T12:22:00.544Z,37.78
2018-12-13T12:24:29.384Z,37.47
2018-12-13T12:26:58.251Z,37.98
2018-12-13T12:29:27.283Z,38.37
2018-12-13T12:31:56.175Z,38.66
2018-12-13T12:34:25.177Z,38.53
2018-12-13T12:36:54.045Z,38.01
2018-12-13T12:39:22.934Z,37.10
2018-12-13T12:41:52.027Z,36.95
2018-12-13T12:44:20.833Z,36.94
2018-12-13T12:46:49.842Z,37.20
2018-12-13T12:49:18.752Z,37.56
2018-12-13T12:51:47.906Z,37.23
2018-12-13T12:54:16.781Z,37.37
2018-12-13T12:56:45.750Z,38.13
2018-12-13T12:59:14.634Z,38.66
2018-12-13T13:01:43.652Z,38.65
2018-12-13T13:04:12.509Z,37.95
2018-12-13T13:06:41.319Z,37.19
2018-12-13T13:09:10.173Z,36.73
2018-12-13T13:11:39.179Z,36.43
2018-12-13T13:14:08.002Z,37.33
2018-12-13T13:16:37.092Z,37.70
2018-12-13T13:19:05.951Z,38.08
2018-12-13T13:21:34.797Z,38.23
2018-12-13T13:24:03.649Z,38.40
2018-12-13T13:26:33.061Z,38.80
2018-12-13T13:29:01.832Z,38.90
2018-12-13T13:31:30.830Z,38.76
2018-12-13T13:33:59.726Z,37.72
2018-12-13T13:36:28.772Z,37.25
2018-12-13T13:38:57.617Z,36.83
2018-12-13T13:41:26.518Z,37.20
2018-12-13T13:43:55.487Z,37.66
2018-12-13T13:46:24.362Z,37.84
2018-12-13T13:48:53.321Z,38.23
2018-12-13T13:51:22.163Z,38.66
2018-12-13T13:53:51.129Z,38.43
2018-12-13T13:56:20.019Z,38.20
2018-12-13T13:58:48.938Z,37.85
2018-12-13T14:01:17.945Z,36.91
2018-12-13T14:03:46.827Z,36.88
2018-12-13T14:06:15.873Z,36.69
2018-12-13T14:08:44.881Z,37.02
2018-12-13T14:11:13.701Z,37.56
2018-12-13T14:13:42.531Z,37.95
2018-12-13T14:16:11.502Z,38.13
2018-12-13T14:18:40.689Z,38.36
2018-12-13T14:21:09.551Z,38.45
2018-12-13T14:23:38.344Z,38.68
2018-12-13T14:26:07.436Z,38.42
2018-12-13T14:28:36.229Z,37.90
2018-12-13T14:31:05.067Z,37.48
2018-12-13T14:33:33.939Z,37.09
2018-12-13T14:36:02.910Z,36.70
2018-12-13T14:38:31.895Z,37.60
2018-12-13T14:41:00.899Z,38.14
2018-12-13T14:43:30.317Z,38.46
2018-12-13T14:45:59.073Z,38.26
2018-12-13T14:48:28.335Z,38.65
2018-12-13T14:50:57.173Z,38.69
2018-12-13T14:53:25.997Z,38.30
2018-12-13T14:55:54.839Z,37.69
2018-12-13T14:58:23.683Z,37.40
2018-12-13T15:00:52.502Z,37.07
2018-12-13T15:03:21.427Z,37.55
2018-12-13T15:05:50.274Z,37.95
2018-12-13T15:08:19.223Z,38.31
2018-12-13T15:10:48.091Z,38.55
2018-12-13T15:13:17.088Z,38.84
2018-12-13T15:15:46.104Z,39.14
2018-12-13T15:18:15.001Z,38.85
2018-12-13T15:20:43.851Z,37.97
2018-12-13T15:23:12.660Z,37.39
2018-12-13T15:25:41.837Z,37.46
2018-12-13T15:28:10.811Z,37.02
2018-12-13T15:30:39.784Z,37.73
2018-12-13T15:33:08.882Z,38.19
2018-12-13T15:35:37.661Z,38.48
2018-12-13T15:38:06.533Z,38.48
2018-12-13T15:40:35.371Z,38.75
2018-12-13T15:43:04.317Z,38.87
2018-12-13T15:45:33.201Z,38.40
2018-12-13T15:48:02.233Z,38.22
2018-12-13T15:50:31.223Z,37.57
2018-12-13T15:53:01.499Z,37.39
2018-12-13T15:55:31.078Z,37.15
2018-12-13T15:58:00.268Z,37.70
2018-12-13T16:00:29.490Z,38.05
2018-12-13T16:02:58.537Z,38.47
2018-12-13T16:05:27.406Z,38.70
2018-12-13T16:07:56.429Z,38.93
2018-12-13T16:10:25.525Z,39.27
2018-12-13T16:12:54.575Z,38.73
2018-12-13T16:15:23.508Z,38.22
2018-12-13T16:17:52.590Z,37.55
2018-12-13T16:20:21.875Z,37.36
2018-12-13T16:22:51.009Z,37.12
2018-12-13T16:25:20.323Z,37.59
2018-12-13T16:27:49.722Z,38.16
2018-12-13T16:30:19.512Z,38.29
2018-12-13T16:32:49.366Z,38.43
2018-12-13T16:35:18.539Z,38.50
2018-12-13T16:37:47.731Z,38.67
2018-12-13T16:40:17.154Z,38.52
2018-12-13T16:42:46.405Z,37.91
2018-12-13T16:45:15.358Z,37.43
2018-12-13T16:47:44.321Z,37.18
2018-12-13T16:50:13.219Z,36.77
2018-12-13T16:52:42.085Z,36.94
2018-12-13T16:55:11.548Z,37.80
2018-12-13T16:57:41.948Z,38.21
2018-12-13T17:00:10.940Z,38.66
2018-12-13T17:02:40.131Z,39.13
2018-12-13T17:05:09.263Z,39.56
2018-12-13T17:07:38.678Z,39.27
2018-12-13T17:10:08.925Z,38.91
2018-12-13T17:12:38.600Z,38.04
2018-12-13T17:15:08.587Z,37.98
2018-12-13T17:17:37.752Z,37.88
2018-12-13T17:20:07.125Z,37.47
2018-12-13T17:22:36.374Z,38.51
2018-12-13T17:25:05.844Z,39.04
2018-12-13T17:27:34.960Z,39.70
2018-12-13T17:30:04.045Z,39.66
2018-12-13T17:32:33.121Z,39.68
2018-12-13T17:35:02.463Z,39.29
2018-12-13T17:37:31.541Z,38.58
2018-12-13T17:40:01.307Z,37.50
2018-12-13T17:42:30.491Z,36.86
2018-12-13T17:45:00.234Z,36.61
2018-12-13T17:47:29.731Z,36.32
2018-12-13T17:49:59.017Z,36.93
2018-12-13T17:52:28.136Z,37.35
2018-12-13T17:54:57.842Z,37.58
2018-12-13T17:58:33.672Z,37.79
2018-12-13T18:01:02.810Z,37.69
2018-12-13T18:03:32.153Z,38.12
2018-12-13T18:06:01.231Z,38.23
2018-12-13T18:08:32.518Z,37.99
2018-12-13T18:11:01.489Z,37.31
2018-12-13T18:13:30.616Z,36.93
2018-12-13T18:15:59.798Z,36.81
2018-12-13T18:18:28.657Z,36.82
2018-12-13T18:20:57.523Z,37.34
2018-12-13T18:23:26.421Z,38.12
2018-12-13T18:25:55.337Z,38.46
2018-12-13T18:28:24.453Z,38.84
2018-12-13T18:30:53.304Z,39.12
2018-12-13T18:33:22.369Z,38.97
2018-12-13T18:35:51.232Z,38.92
2018-12-13T18:38:20.485Z,38.79
2018-12-13T18:40:49.379Z,38.36
2018-12-13T18:43:18.237Z,37.86
2018-12-13T18:45:47.027Z,37.56
2018-12-13T18:48:16.191Z,37.56
2018-12-13T18:50:45.065Z,37.76
2018-12-13T18:53:13.895Z,39.05
2018-12-13T18:55:42.956Z,39.21
2018-12-13T18:58:12.139Z,39.20
2018-12-13T19:00:41.454Z,39.53
2018-12-13T19:03:10.663Z,40.02
2018-12-13T19:05:39.790Z,39.34
2018-12-13T19:08:09.073Z,39.46
2018-12-13T19:10:41.863Z,39.33
2018-12-13T19:13:09.045Z,38.70
2018-12-13T19:15:38.610Z,38.64
2018-12-13T19:18:07.808Z,38.34
2018-12-13T19:20:36.770Z,38.13
2018-12-13T19:23:05.635Z,38.66
2018-12-13T19:25:34.480Z,39.27
2018-12-13T19:28:03.328Z,38.99
2018-12-13T19:30:32.253Z,39.66
2018-12-13T19:33:01.279Z,39.96
2018-12-13T19:35:30.158Z,39.94
2018-12-13T19:37:59.588Z,39.91
2018-12-13T19:40:28.426Z,39.37
2018-12-13T19:42:57.243Z,39.38
2018-12-13T19:45:26.222Z,39.03
2018-12-13T19:47:55.081Z,38.24
2018-12-13T19:50:23.942Z,38.37
2018-12-13T19:52:52.807Z,37.81
2018-12-13T19:55:21.847Z,38.73
2018-12-13T19:57:50.887Z,38.76
2018-12-13T20:00:20.060Z,38.86
2018-12-13T20:02:48.858Z,38.85
2018-12-13T20:05:17.825Z,39.16
2018-12-13T20:07:46.598Z,39.10
2018-12-13T20:10:15.711Z,39.85
2018-12-13T20:12:44.684Z,39.87
2018-12-13T20:15:13.528Z,38.89
2018-12-13T20:17:42.578Z,38.75
2018-12-13T20:20:11.866Z,38.28
2018-12-13T20:22:40.837Z,38.54
2018-12-13T20:25:10.110Z,37.96
2018-12-13T20:27:40.306Z,38.68
2018-12-13T20:30:10.149Z,38.73
2018-12-13T20:32:39.424Z,39.86
2018-12-13T20:35:08.584Z,39.82
2018-12-13T20:37:37.555Z,39.86
2018-12-13T20:40:06.579Z,40.30
2018-12-13T20:42:35.402Z,40.25
2018-12-13T20:45:05.147Z,40.21
2018-12-13T20:47:34.166Z,40.39
2018-12-13T20:50:02.987Z,39.85
2018-12-13T20:52:32.319Z,38.97
2018-12-13T20:55:01.472Z,38.71
2018-12-13T20:57:30.583Z,38.65
2018-12-13T20:59:59.534Z,38.71
2018-12-13T21:02:28.493Z,38.20
2018-12-13T21:04:57.472Z,38.14
2018-12-13T21:07:31.552Z,38.92
2018-12-13T21:10:00.567Z,39.43
2018-12-13T21:12:29.586Z,39.69
2018-12-13T21:14:58.441Z,39.93
2018-12-13T21:17:27.225Z,40.09
2018-12-13T21:19:56.019Z,40.23
2018-12-13T21:22:25.036Z,40.15
2018-12-13T21:24:53.797Z,39.90
2018-12-13T21:27:22.574Z,39.17
2018-12-13T21:29:51.830Z,39.10
2018-12-13T21:32:21.003Z,38.48
2018-12-13T21:34:50.012Z,38.22
2018-12-13T21:37:19.100Z,38.31
2018-12-13T21:39:47.995Z,38.41
2018-12-13T21:42:16.894Z,38.54
2018-12-13T21:44:45.708Z,39.63
2018-12-13T21:47:14.594Z,39.74
2018-12-13T21:49:43.461Z,39.71
2018-12-13T21:52:12.446Z,40.17
2018-12-13T21:54:41.266Z,40.47
2018-12-13T21:57:10.724Z,40.71
2018-12-13T21:59:39.693Z,39.90
2018-12-13T22:02:08.732Z,39.89
2018-12-13T22:04:37.565Z,39.23
2018-12-13T22:07:06.569Z,38.87
2018-12-13T22:09:35.559Z,38.92
2018-12-13T22:12:04.526Z,38.44
2018-12-13T22:14:33.397Z,38.48
2018-12-13T22:17:02.305Z,38.50
2018-12-13T22:19:31.159Z,38.54
2018-12-13T22:22:00.221Z,39.15
2018-12-13T22:24:29.537Z,39.72
2018-12-13T22:26:58.337Z,40.02
2018-12-13T22:29:27.533Z,40.48
2018-12-13T22:31:57.151Z,41.03
2018-12-13T22:34:26.229Z,41.85
2018-12-13T22:36:55.432Z,41.46
2018-12-13T22:39:24.449Z,41.77
2018-12-13T22:41:53.496Z,41.33
2018-12-13T22:44:22.468Z,40.45
2018-12-13T22:46:51.636Z,39.98
2018-12-13T22:49:20.737Z,39.91
2018-12-13T22:51:49.530Z,39.81
2018-12-13T22:54:18.525Z,39.77
2018-12-13T22:56:47.401Z,40.12
2018-12-13T22:59:16.177Z,40.45
2018-12-13T23:01:44.928Z,40.44
2018-12-13T23:04:13.729Z,40.42
2018-12-13T23:06:42.657Z,40.66
2018-12-13T23:09:11.824Z,40.99
2018-12-13T23:11:40.924Z,40.79
2018-12-13T23:14:10.023Z,40.48
2018-12-13T23:16:39.037Z,40.42
2018-12-13T23:19:07.819Z,39.89
2018-12-13T23:21:36.582Z,39.51
2018-12-13T23:24:05.536Z,39.11
2018-12-13T23:26:34.396Z,38.91
2018-12-13T23:29:03.180Z,39.03
2018-12-13T23:31:32.087Z,39.65
2018-12-13T23:34:00.944Z,39.95
2018-12-13T23:36:29.956Z,40.51
2018-12-13T23:38:58.744Z,40.32
2018-12-13T23:41:27.711Z,40.24
2018-12-13T23:43:56.455Z,39.52
2018-12-13T23:46:25.608Z,39.16
2018-12-13T23:48:54.901Z,39.27
2018-12-13T23:51:23.676Z,38.94
2018-12-13T23:53:52.511Z,39.18
2018-12-13T23:56:21.677Z,39.83
2018-12-13T23:58:50.966Z,40.34
